Augusta Regional At Bush Field
KAGS : now visible

Airfield :











YOU CAN JOIN US ON...

 
LOGIN :

Register | Disclaimer

   EN    FR    IT 

 









Legend :    VFR   Marginal VFR   IFR   Intensive IFR   Very Intensive IFR
Visi :
Ceiling :
>= 8 km
>= 3000ft
5 to 8 km
1000 to 3000 ft
1500m to 5 km
500 to 1000 ft
800 to 1500m
200 to 500 ft
< 800m
< 200 ft
Symbols :   Thunderstorms  Fog  Heavy snow  Heavy precipitations  Wind > 20 kt






- Airport Elevation : 144 ft
- IATA code : AGS


KAGS - Augusta Regional At Bush Field

CURRENT METAR :
  • 231853Z 20005KT 10SM FEW050 31/18 A2997 RMK AO2 SLP146 T03110183

EXPIRED METARs :
  • 231753Z 24005KT 10SM FEW050 31/18 A2997 RMK AO2 SLP147 T03060183 10311 20217 57012
  • 231653Z COR 240/05 10SM FEW045 SCT060 BKN080 29/18 A2998 RMK AO2 SLP151 T02940183
  • 231553Z 24005KT 10SM CLR 29/19 A3000 RMK AO2 SLP156 T02940194
  • 231453Z 24005KT 10SM CLR 28/19 A3001 RMK AO2 SLP159 T02830194 58003
  • 231353Z 25007KT 10SM CLR 27/19 A3002 RMK AO2 SLP163 T02670194

TAF KAGS
Valid from the 23 at 18:00 until the 24 at 18:00 UTC


231730Z 2318/2418 23006KT P6SM SCT050 SCT250
FM240100 VRB03KT P6SM SCT100 BKN250
FM241400 27008KT P6SM SCT040 BKN150
KZTL FIR / North America



MET'MAP, your aeronautical weather chart ! - Copyright ORBIFLY December 2007 - Disclaimer

ORBIFLY MET'MAP TEAM :

Programming & Development : Alexandra Zaïnal
Original concept : Baudouin d'Aumeries
Technical & hardware support : Manuel Goepfert
Assistance : Marc-Olivier Méhu




SOURCES & CREDITS :

   NOAA       Earth
Advisory